Time;durP1;ratioP1;P1;durP2;ratioP2;P2;SDS_P1;SDS_P2;PMS_P1;PMS_P2;Temp;Humidity;BMP_temperature;BMP_pressure;BME280_temperature;BME280_humidity;BME280_pressure;Samples;Min_cycle;Max_cycle;Signal;HPM_P1;HPM_P2
2022/10/23 00:01:20;;;;;;;11.25;7.22;;;11.40;99.90;;;;;;5035128;28;20048;-58
2022/10/23 00:03:46;;;;;;;8.38;6.25;;;11.40;99.90;;;;;;5034813;28;20195;-58
2022/10/23 00:06:13;;;;;;;10.90;5.97;;;11.40;99.90;;;;;;5034181;28;20374;-55
2022/10/23 00:08:39;;;;;;;11.40;7.13;;;11.40;99.90;;;;;;5035003;28;20021;-59
2022/10/23 00:11:06;;;;;;;12.25;6.75;;;11.40;99.90;;;;;;5034773;28;20025;-59
2022/10/23 00:13:32;;;;;;;10.95;7.25;;;11.30;99.90;;;;;;5034030;28;20048;-58
2022/10/23 00:15:57;;;;;;;10.57;6.88;;;11.30;99.90;;;;;;5034521;28;20097;-58
2022/10/23 00:18:23;;;;;;;15.15;7.13;;;11.20;99.90;;;;;;5034477;28;20374;-58
2022/10/23 00:20:48;;;;;;;10.82;7.05;;;11.20;99.90;;;;;;5034143;28;20025;-60
2022/10/23 00:23:15;;;;;;;13.73;8.10;;;11.20;99.90;;;;;;5034786;28;20136;-59
2022/10/23 00:25:41;;;;;;;14.02;8.25;;;11.10;99.90;;;;;;5034643;28;20100;-58
2022/10/23 00:28:07;;;;;;;13.57;8.70;;;11.10;99.90;;;;;;5033953;28;20449;-58
2022/10/23 00:30:32;;;;;;;15.85;8.57;;;11.00;99.90;;;;;;5034348;28;20022;-57
2022/10/23 00:32:58;;;;;;;17.75;9.57;;;11.00;99.90;;;;;;5033079;28;20026;-57
2022/10/23 00:35:23;;;;;;;15.07;9.52;;;11.00;99.90;;;;;;5034333;28;20063;-56
2022/10/23 00:37:49;;;;;;;17.63;10.10;;;11.00;99.90;;;;;;5034147;28;20026;-58
2022/10/23 00:40:14;;;;;;;17.90;9.85;;;11.00;99.90;;;;;;5033811;28;20021;-58
2022/10/23 00:42:40;;;;;;;19.15;9.80;;;10.90;99.90;;;;;;5034078;28;20029;-58
2022/10/23 00:45:26;;;;;;;17.35;9.63;;;10.90;99.90;;;;;;5034031;28;20046;-59
2022/10/23 00:47:53;;;;;;;15.98;10.02;;;10.90;99.90;;;;;;5033689;28;20021;-57
2022/10/23 00:50:22;;;;;;;18.17;9.93;;;10.90;99.90;;;;;;5034404;28;20026;-60
2022/10/23 00:52:51;;;;;;;17.13;11.10;;;10.80;99.90;;;;;;5033759;28;20025;-58
2022/10/23 00:55:20;;;;;;;18.20;10.93;;;10.80;99.90;;;;;;5033323;28;20134;-54
2022/10/23 00:57:48;;;;;;;21.23;11.07;;;10.80;99.90;;;;;;5033825;28;20516;-59
2022/10/23 01:00:26;;;;;;;22.20;11.63;;;10.70;99.90;;;;;;5033753;28;20057;-59
2022/10/23 01:02:53;;;;;;;18.52;11.38;;;10.70;99.90;;;;;;5033063;28;20432;-55
2022/10/23 01:05:25;;;;;;;23.13;11.98;;;10.70;99.90;;;;;;5033628;28;20045;-57
2022/10/23 01:07:57;;;;;;;19.38;10.25;;;10.70;99.90;;;;;;5033457;28;20025;-58
2022/10/23 01:10:43;;;;;;;20.25;11.07;;;10.70;99.90;;;;;;5032974;28;20079;-60
2022/10/23 01:13:19;;;;;;;20.70;10.15;;;10.70;99.90;;;;;;5033874;28;20477;-58
2022/10/23 01:16:11;;;;;;;20.38;10.60;;;10.70;99.90;;;;;;5032990;28;20021;-57
2022/10/23 01:18:49;;;;;;;15.43;9.20;;;10.70;99.90;;;;;;5033422;28;20017;-54
2022/10/23 01:21:33;;;;;;;16.50;9.95;;;10.70;99.90;;;;;;5033360;28;20477;-56
2022/10/23 01:24:30;;;;;;;18.02;9.20;;;10.70;99.90;;;;;;5031386;28;20053;-57
2022/10/23 01:27:13;;;;;;;16.90;9.32;;;10.60;99.90;;;;;;5033427;28;20053;-58
2022/10/23 01:29:41;;;;;;;14.57;8.48;;;10.60;99.90;;;;;;5032470;28;20055;-59
2022/10/23 01:32:14;;;;;;;14.85;9.32;;;10.60;99.90;;;;;;5048517;28;20029;-57
2022/10/23 01:34:46;;;;;;;15.73;9.25;;;10.60;99.90;;;;;;5033407;28;20024;-57
2022/10/23 01:37:18;;;;;;;14.82;8.23;;;10.60;99.90;;;;;;5032508;28;20100;-59
2022/10/23 01:39:48;;;;;;;17.83;8.95;;;10.60;99.90;;;;;;5033100;28;20029;-58
2022/10/23 01:42:20;;;;;;;16.98;8.90;;;10.60;99.90;;;;;;5033054;28;20389;-55
2022/10/23 01:44:50;;;;;;;13.90;8.23;;;10.60;99.90;;;;;;5031312;28;20046;-59
2022/10/23 01:47:18;;;;;;;15.68;7.50;;;10.50;99.90;;;;;;5033116;28;20042;-59
2022/10/23 01:49:47;;;;;;;11.75;7.38;;;10.50;99.90;;;;;;5032903;28;20208;-55
2022/10/23 01:52:15;;;;;;;14.25;6.90;;;10.50;99.90;;;;;;5032224;28;20509;-58
2022/10/23 01:54:43;;;;;;;14.73;6.85;;;10.50;99.90;;;;;;5032863;28;20051;-61
2022/10/23 01:57:12;;;;;;;11.07;5.95;;;10.50;99.90;;;;;;5033116;28;20017;-56
2022/10/23 01:59:44;;;;;;;11.65;6.13;;;10.50;99.90;;;;;;5032859;28;20063;-58
2022/10/23 02:02:12;;;;;;;9.63;5.80;;;10.40;99.90;;;;;;5032935;28;20025;-58
2022/10/23 02:04:40;;;;;;;7.60;5.30;;;10.40;99.90;;;;;;5031876;28;20474;-57
2022/10/23 02:07:06;;;;;;;8.57;5.43;;;10.40;99.90;;;;;;5032747;28;20036;-58
2022/10/23 02:09:32;;;;;;;8.75;5.90;;;10.40;99.90;;;;;;5047782;28;20025;-57
2022/10/23 02:12:05;;;;;;;8.70;5.45;;;10.40;99.90;;;;;;5032192;28;20520;-58
2022/10/23 02:15:01;;;;;;;7.47;5.35;;;10.40;99.90;;;;;;5032638;28;20025;-58
2022/10/23 02:17:32;;;;;;;7.38;4.90;;;10.40;99.90;;;;;;5031198;28;20038;-58
2022/10/23 02:20:07;;;;;;;8.75;4.78;;;10.50;99.90;;;;;;5031827;28;20079;-58
2022/10/23 02:22:39;;;;;;;9.52;5.45;;;10.50;99.90;;;;;;5032489;28;20392;-58
2022/10/23 02:25:18;;;;;;;8.77;5.20;;;10.40;99.90;;;;;;5032369;28;20033;-54
2022/10/23 02:27:53;;;;;;;6.63;4.65;;;10.50;99.90;;;;;;5031591;28;20021;-57
2022/10/23 02:30:20;;;;;;;9.82;5.20;;;10.50;99.90;;;;;;5032398;28;20021;-58
2022/10/23 02:32:52;;;;;;;9.65;5.60;;;10.40;99.90;;;;;;5031499;28;20463;-57
2022/10/23 02:35:20;;;;;;;8.32;4.80;;;10.40;99.90;;;;;;5032227;28;20017;-57
2022/10/23 02:37:57;;;;;;;8.90;5.18;;;10.40;99.90;;;;;;5032031;28;20338;-58
2022/10/23 02:40:29;;;;;;;8.80;4.47;;;10.50;99.90;;;;;;5031509;28;20022;-59
2022/10/23 02:43:02;;;;;;;9.63;5.63;;;10.40;99.90;;;;;;5031973;28;20049;-57
2022/10/23 02:45:52;;;;;;;10.73;4.90;;;10.40;99.90;;;;;;5031820;28;20565;-59
2022/10/23 02:48:37;;;;;;;8.63;5.15;;;10.40;99.90;;;;;;5031521;28;20021;-57
2022/10/23 02:51:16;;;;;;;8.70;4.20;;;10.40;99.90;;;;;;5032067;28;20033;-58
2022/10/23 02:53:48;;;;;;;9.75;4.35;;;10.30;99.90;;;;;;5031350;28;20060;-60
2022/10/23 02:56:32;;;;;;;7.93;4.40;;;10.30;99.90;;;;;;5031728;28;20176;-59
2022/10/23 02:59:13;;;;;;;9.23;4.18;;;10.20;99.90;;;;;;5046963;28;20405;-56
2022/10/23 03:01:47;;;;;;;;;;;10.20;99.90;;;;;;5031650;28;20159;-58
2022/10/23 03:04:14;;;;;;;8.80;4.72;;;10.20;99.90;;;;;;5031820;28;19916;-59
2022/10/23 03:06:40;;;;;;;11.23;4.32;;;10.10;99.90;;;;;;5031839;28;20099;-58
2022/10/23 03:09:08;;;;;;;7.72;4.40;;;10.10;99.90;;;;;;5031138;28;20080;-58
2022/10/23 03:11:34;;;;;;;6.32;4.45;;;10.00;99.90;;;;;;5031817;28;20108;-58
2022/10/23 03:14:00;;;;;;;6.43;4.28;;;10.00;99.90;;;;;;5031639;28;20033;-59
2022/10/23 03:16:25;;;;;;;8.07;4.68;;;10.00;99.90;;;;;;5033349;28;20128;-61
2022/10/23 03:18:51;;;;;;;7.78;4.70;;;10.00;99.90;;;;;;5051109;28;20474;-59
2022/10/23 03:21:17;;;;;;;7.00;5.00;;;10.00;99.90;;;;;;5051515;28;20111;-58
2022/10/23 03:23:42;;;;;;;9.50;4.95;;;10.00;99.90;;;;;;5050817;28;20400;-61
2022/10/23 03:26:08;;;;;;;10.80;4.82;;;10.00;99.90;;;;;;5051473;28;20147;-62
2022/10/23 03:28:34;;;;;;;8.15;4.72;;;9.90;99.90;;;;;;5051252;28;20090;-59
2022/10/23 03:31:01;;;;;;;8.57;4.80;;;9.90;99.90;;;;;;5049830;28;20029;-58
2022/10/23 03:33:27;;;;;;;7.93;4.13;;;9.90;99.90;;;;;;5051219;28;20013;-59
2022/10/23 03:35:53;;;;;;;8.15;4.85;;;9.90;99.90;;;;;;5048214;28;20025;-55
2022/10/23 03:38:18;;;;;;;8.10;4.72;;;10.00;99.90;;;;;;5066781;28;20024;-60
2022/10/23 03:40:44;;;;;;;7.60;4.40;;;10.00;99.90;;;;;;5051583;28;20024;-56
2022/10/23 03:43:09;;;;;;;8.63;5.43;;;10.00;99.90;;;;;;5050638;28;20025;-59
2022/10/23 03:45:37;;;;;;;9.73;5.03;;;10.00;99.90;;;;;;5051279;28;20062;-58
2022/10/23 03:48:03;;;;;;;10.60;5.00;;;10.00;99.90;;;;;;5050634;28;20104;-54
2022/10/23 03:50:29;;;;;;;8.77;5.47;;;10.00;99.90;;;;;;5050066;28;20847;-59
2022/10/23 03:52:54;;;;;;;10.57;5.28;;;10.00;99.90;;;;;;5051263;28;20028;-55
2022/10/23 03:55:20;;;;;;;10.30;5.00;;;10.00;99.90;;;;;;5050586;28;20131;-57
2022/10/23 03:57:46;;;;;;;8.38;4.45;;;10.00;99.90;;;;;;5050678;28;20025;-55
2022/10/23 04:00:12;;;;;;;8.77;5.03;;;10.00;99.90;;;;;;5050884;28;20462;-57
2022/10/23 04:02:37;;;;;;;12.52;5.30;;;10.00;99.90;;;;;;5049104;28;20075;-58
2022/10/23 04:05:03;;;;;;;9.52;4.88;;;10.00;99.90;;;;;;5051044;28;20438;-56
2022/10/23 04:07:29;;;;;;;8.95;4.55;;;10.00;99.90;;;;;;5050694;28;20396;-56
2022/10/23 04:09:54;;;;;;;9.18;4.72;;;10.00;99.90;;;;;;5052847;28;20117;-58
2022/10/23 04:12:20;;;;;;;8.50;4.53;;;10.00;99.90;;;;;;5054756;28;20480;-59
2022/10/23 04:14:45;;;;;;;8.27;4.93;;;10.10;99.90;;;;;;5054519;28;20029;-57
2022/10/23 04:17:11;;;;;;;10.77;5.15;;;10.10;99.90;;;;;;5053978;28;20032;-57
2022/10/23 04:19:37;;;;;;;9.60;4.68;;;10.10;99.90;;;;;;5054549;28;20049;-55
2022/10/23 04:22:02;;;;;;;9.50;4.57;;;10.10;99.90;;;;;;5054795;28;20492;-56
2022/10/23 04:24:28;;;;;;;8.55;4.70;;;10.10;99.90;;;;;;5054003;28;20389;-58
2022/10/23 04:26:53;;;;;;;10.27;4.78;;;10.10;99.90;;;;;;5054510;28;20108;-57
2022/10/23 04:29:21;;;;;;;9.95;4.85;;;10.10;99.90;;;;;;5054274;28;20028;-58
2022/10/23 04:31:47;;;;;;;8.75;4.78;;;10.10;99.90;;;;;;5053961;28;20020;-57
2022/10/23 04:34:13;;;;;;;8.45;4.20;;;10.10;99.90;;;;;;5054336;28;20351;-60
2022/10/23 04:36:38;;;;;;;8.07;5.22;;;10.10;99.90;;;;;;5054174;28;20028;-62
2022/10/23 04:39:04;;;;;;;9.18;4.82;;;10.10;99.90;;;;;;5053575;28;20025;-58
2022/10/23 04:41:29;;;;;;;8.57;5.20;;;10.10;99.90;;;;;;5054336;28;20021;-56
2022/10/23 04:43:55;;;;;;;8.13;4.38;;;10.10;99.90;;;;;;5053941;28;20045;-58
2022/10/23 04:46:21;;;;;;;7.90;4.45;;;10.10;99.90;;;;;;5053373;28;20359;-59
2022/10/23 04:48:46;;;;;;;10.05;5.45;;;10.10;99.90;;;;;;5054040;28;20513;-60
2022/10/23 04:51:12;;;;;;;8.45;4.45;;;10.10;99.90;;;;;;5053996;28;20049;-57
2022/10/23 04:53:37;;;;;;;9.95;4.55;;;10.10;99.90;;;;;;5053239;28;20094;-57
2022/10/23 04:56:04;;;;;;;8.40;4.93;;;10.10;99.90;;;;;;5053927;28;20025;-55
2022/10/23 04:58:30;;;;;;;7.97;4.40;;;10.10;99.90;;;;;;5053185;28;20061;-57
2022/10/23 05:00:56;;;;;;;7.55;4.57;;;10.20;99.90;;;;;;5053907;28;20063;-58
2022/10/23 05:03:23;;;;;;;7.40;4.47;;;10.20;99.90;;;;;;5053725;28;20032;-61
2022/10/23 05:05:51;;;;;;;8.60;4.10;;;10.20;99.90;;;;;;5053176;28;20032;-59
2022/10/23 05:08:16;;;;;;;9.25;4.22;;;10.20;99.90;;;;;;5053596;28;20074;-57
2022/10/23 05:10:42;;;;;;;7.28;4.60;;;10.30;99.90;;;;;;5053984;28;20032;-60
2022/10/23 05:13:07;;;;;;;9.68;4.00;;;10.30;99.90;;;;;;5053118;28;20067;-57
2022/10/23 05:15:33;;;;;;;9.25;4.35;;;10.30;99.90;;;;;;5053651;28;20074;-58
2022/10/23 05:18:07;;;;;;;6.95;3.92;;;10.30;99.90;;;;;;5053413;28;20060;-58
2022/10/23 05:20:35;;;;;;;6.13;3.50;;;10.30;99.90;;;;;;5052723;28;20025;-60
2022/10/23 05:23:01;;;;;;;7.85;3.55;;;10.30;99.90;;;;;;5053432;28;20381;-56
2022/10/23 05:25:29;;;;;;;6.50;3.72;;;10.40;99.90;;;;;;5053516;28;20025;-56
2022/10/23 05:27:55;;;;;;;7.93;4.07;;;10.40;99.90;;;;;;5052717;28;20032;-57
2022/10/23 05:30:20;;;;;;;7.45;4.30;;;10.40;99.90;;;;;;5053217;28;20421;-57
2022/10/23 05:32:47;;;;;;;8.35;4.30;;;10.40;99.90;;;;;;5053264;28;20096;-59
2022/10/23 05:35:17;;;;;;;8.10;4.28;;;10.40;99.90;;;;;;5052536;28;20029;-57
2022/10/23 05:37:45;;;;;;;7.50;3.80;;;10.40;99.90;;;;;;5051725;28;20095;-57
2022/10/23 05:40:11;;;;;;;7.88;4.30;;;10.30;99.90;;;;;;5053124;28;20708;-58
2022/10/23 05:42:36;;;;;;;7.80;4.00;;;10.30;99.90;;;;;;5052230;28;20124;-57
2022/10/23 05:45:02;;;;;;;6.93;4.10;;;10.30;99.90;;;;;;5051531;28;20072;-57
2022/10/23 05:47:28;;;;;;;10.38;4.70;;;10.30;99.90;;;;;;5053038;28;20035;-58
2022/10/23 05:49:54;;;;;;;6.15;3.88;;;10.30;99.90;;;;;;5052372;28;20099;-59
2022/10/23 05:52:19;;;;;;;9.73;4.32;;;10.30;99.90;;;;;;5051473;28;20478;-59
2022/10/23 05:54:45;;;;;;;7.85;4.25;;;10.40;99.90;;;;;;5052260;28;20044;-56
2022/10/23 05:57:10;;;;;;;8.05;4.72;;;10.40;99.90;;;;;;5052718;28;20111;-60
2022/10/23 05:59:36;;;;;;;6.80;3.88;;;10.40;99.90;;;;;;5052660;28;20025;-55
2022/10/23 06:02:02;;;;;;;7.68;4.53;;;10.40;99.90;;;;;;5052050;28;20032;-56
2022/10/23 06:04:27;;;;;;;9.77;4.47;;;10.40;99.90;;;;;;5051778;28;20043;-60
2022/10/23 06:06:53;;;;;;;8.30;4.30;;;10.50;99.90;;;;;;5052161;28;20017;-57
2022/10/23 06:09:18;;;;;;;9.57;4.28;;;10.50;99.90;;;;;;5051578;28;20043;-55
2022/10/23 06:11:44;;;;;;;9.20;4.78;;;10.60;99.90;;;;;;5050848;28;20036;-57
2022/10/23 06:14:10;;;;;;;8.75;4.03;;;10.60;99.90;;;;;;5051843;28;20523;-56
2022/10/23 06:16:35;;;;;;;7.43;4.15;;;10.70;99.90;;;;;;5051590;28;20083;-58
2022/10/23 06:19:01;;;;;;;6.78;3.95;;;10.70;99.90;;;;;;5052047;28;20074;-56
2022/10/23 06:21:26;;;;;;;8.48;4.22;;;10.80;99.90;;;;;;5050049;28;20147;-59
2022/10/23 06:23:54;;;;;;;12.73;5.28;;;10.80;99.90;;;;;;5049037;28;20415;-63
2022/10/23 06:26:19;;;;;;;8.98;5.35;;;10.90;99.90;;;;;;5050563;28;20431;-59
2022/10/23 06:28:45;;;;;;;7.82;4.70;;;10.90;99.90;;;;;;5051783;28;20021;-62
2022/10/23 06:31:13;;;;;;;8.00;4.53;;;10.90;99.90;;;;;;5051157;28;20021;-63
2022/10/23 06:33:40;;;;;;;10.73;4.93;;;11.00;99.90;;;;;;5050974;28;20405;-63
2022/10/23 06:36:09;;;;;;;9.35;4.97;;;11.00;99.90;;;;;;5050971;28;20013;-60
2022/10/23 06:38:38;;;;;;;8.68;5.00;;;11.00;99.90;;;;;;5051568;28;20032;-56
2022/10/23 06:41:06;;;;;;;10.50;5.30;;;11.10;99.90;;;;;;5052275;28;20071;-60
2022/10/23 06:43:32;;;;;;;8.73;5.13;;;11.20;99.90;;;;;;5051985;28;20065;-66
2022/10/23 06:46:02;;;;;;;8.20;4.80;;;11.20;99.90;;;;;;5051729;28;20032;-66
2022/10/23 06:48:28;;;;;;;8.25;4.60;;;11.20;99.90;;;;;;5052202;28;20467;-65
2022/10/23 06:50:54;;;;;;;8.20;4.75;;;11.30;99.90;;;;;;5051565;28;20100;-58
2022/10/23 06:53:22;;;;;;;8.60;4.60;;;11.30;99.90;;;;;;5051385;28;20017;-57
2022/10/23 06:55:48;;;;;;;11.18;5.13;;;11.30;99.90;;;;;;5051844;28;20120;-56
2022/10/23 06:58:13;;;;;;;7.45;4.35;;;11.40;99.90;;;;;;5051244;28;20033;-60
2022/10/23 07:00:39;;;;;;;9.73;4.80;;;11.40;99.90;;;;;;5051964;28;20053;-56
2022/10/23 07:03:05;;;;;;;9.43;4.50;;;11.40;99.90;;;;;;5051638;28;20024;-55
2022/10/23 07:05:31;;;;;;;8.68;4.78;;;11.50;99.90;;;;;;5051070;28;20078;-58
2022/10/23 07:07:57;;;;;;;7.97;4.20;;;11.50;99.90;;;;;;5051521;28;20391;-60
2022/10/23 07:10:23;;;;;;;8.07;4.45;;;11.50;99.90;;;;;;5050161;28;20068;-57
2022/10/23 07:12:48;;;;;;;8.18;4.22;;;11.60;99.90;;;;;;5051368;28;20420;-60
2022/10/23 07:15:15;;;;;;;7.35;4.38;;;11.60;99.90;;;;;;5051583;28;20039;-57
2022/10/23 07:17:40;;;;;;;9.27;4.18;;;11.60;99.90;;;;;;5051449;28;20120;-55
2022/10/23 07:20:06;;;;;;;5.43;3.92;;;11.70;99.90;;;;;;5050817;28;20469;-57
2022/10/23 07:22:32;;;;;;;7.60;3.90;;;11.60;99.90;;;;;;5051833;28;20021;-57
2022/10/23 07:24:58;;;;;;;10.18;4.68;;;11.70;99.90;;;;;;5051551;28;20481;-58
2022/10/23 07:27:24;;;;;;;10.15;4.53;;;11.70;99.90;;;;;;5050864;28;20025;-59
2022/10/23 07:29:50;;;;;;;10.45;5.00;;;11.70;99.90;;;;;;5051770;28;20013;-59
2022/10/23 07:32:16;;;;;;;6.50;4.10;;;11.80;99.90;;;;;;5049066;28;20489;-57
2022/10/23 07:34:41;;;;;;;8.40;4.57;;;11.80;99.90;;;;;;5050250;28;20059;-58
2022/10/23 07:37:07;;;;;;;10.05;5.35;;;11.90;99.90;;;;;;5050748;28;20021;-58
2022/10/23 07:39:32;;;;;;;8.38;4.63;;;11.90;99.90;;;;;;5050680;28;20032;-57
2022/10/23 07:41:58;;;;;;;9.60;4.45;;;12.00;99.90;;;;;;5050341;28;20049;-56
2022/10/23 07:44:24;;;;;;;7.63;4.65;;;12.00;99.90;;;;;;5054492;28;20560;-57
2022/10/23 07:46:50;;;;;;;6.50;4.03;;;12.10;99.90;;;;;;5054028;28;20037;-58
2022/10/23 07:49:15;;;;;;;7.82;4.03;;;12.10;99.90;;;;;;5053937;28;20469;-58
2022/10/23 07:51:41;;;;;;;8.52;4.25;;;12.20;99.90;;;;;;5054329;28;20111;-58
2022/10/23 07:54:09;;;;;;;8.65;4.65;;;12.20;99.90;;;;;;5054300;28;20385;-58
2022/10/23 07:56:35;;;;;;;8.90;4.40;;;12.30;99.90;;;;;;5054778;28;20029;-58
2022/10/23 07:59:00;;;;;;;8.75;4.47;;;12.30;99.90;;;;;;5052691;28;20043;-60
2022/10/23 08:01:35;;;;;;;7.53;4.72;;;12.40;99.90;;;;;;5052775;28;20021;-59
2022/10/23 08:04:00;;;;;;;9.98;5.00;;;12.50;99.90;;;;;;5052294;28;20385;-60
2022/10/23 08:06:26;;;;;;;9.93;4.68;;;12.50;99.90;;;;;;5054458;28;20025;-59
2022/10/23 08:08:52;;;;;;;8.68;4.60;;;12.60;99.90;;;;;;5053986;28;20424;-58
2022/10/23 08:11:24;;;;;;;8.30;4.80;;;12.60;99.90;;;;;;5054287;28;20029;-57
2022/10/23 08:13:55;;;;;;;10.60;5.10;;;12.70;99.90;;;;;;5054614;28;20025;-59
2022/10/23 08:16:21;;;;;;;8.55;4.75;;;12.70;99.90;;;;;;5054150;28;20017;-62
2022/10/23 08:18:48;;;;;;;10.45;4.80;;;12.80;99.90;;;;;;5055079;28;20416;-62
2022/10/23 08:21:15;;;;;;;8.75;4.75;;;12.80;99.90;;;;;;5054356;28;20374;-60
2022/10/23 08:23:40;;;;;;;9.73;5.25;;;12.90;99.90;;;;;;5052135;28;20374;-60
2022/10/23 08:26:07;;;;;;;9.43;3.97;;;13.00;99.90;;;;;;5054320;28;20033;-63
2022/10/23 08:28:33;;;;;;;8.30;4.65;;;13.00;99.90;;;;;;5052498;28;20091;-66
2022/10/23 08:31:06;;;;;;;11.73;5.70;;;13.10;99.90;;;;;;5053485;28;20060;-63
2022/10/23 08:33:32;;;;;;;9.55;5.22;;;13.10;99.90;;;;;;5053869;28;20017;-62
2022/10/23 08:35:58;;;;;;;7.63;4.53;;;13.20;99.90;;;;;;5054529;28;20025;-66
2022/10/23 08:38:23;;;;;;;11.80;5.50;;;13.20;99.90;;;;;;5053294;28;20155;-67
2022/10/23 08:40:50;;;;;;;9.20;5.05;;;13.30;99.90;;;;;;5054526;28;20021;-66
2022/10/23 08:43:35;;;;;;;8.63;4.40;;;13.40;99.90;;;;;;5054010;28;20029;-61
2022/10/23 08:46:12;;;;;;;7.60;4.25;;;13.40;99.90;;;;;;5053770;28;20033;-66
2022/10/23 08:48:47;;;;;;;7.65;4.30;;;13.50;99.90;;;;;;5053608;28;20091;-61
2022/10/23 08:51:20;;;;;;;7.35;4.43;;;13.60;99.90;;;;;;5053621;28;20430;-66
2022/10/23 08:54:10;;;;;;;6.97;3.63;;;13.70;99.90;;;;;;5053481;28;20017;-67
2022/10/23 08:56:40;;;;;;;7.88;4.70;;;13.80;99.90;;;;;;5053751;28;20025;-64
2022/10/23 08:59:18;;;;;;;8.68;4.00;;;13.80;99.90;;;;;;5053059;28;20025;-63
2022/10/23 09:01:50;;;;;;;8.75;3.90;;;13.90;99.90;;;;;;5053620;28;20501;-64
2022/10/23 09:04:16;;;;;;;9.25;4.80;;;13.90;99.90;;;;;;5053850;28;20116;-61
2022/10/23 09:07:03;;;;;;;10.27;4.65;;;14.00;99.90;;;;;;5053219;28;20044;-59
2022/10/23 09:09:51;;;;;;;7.70;4.15;;;14.10;99.90;;;;;;5051060;28;20048;-58
2022/10/23 09:12:21;;;;;;;6.10;3.60;;;14.20;99.90;;;;;;5050914;28;20029;-58
2022/10/23 09:15:12;;;;;;;6.30;3.45;;;14.30;99.90;;;;;;5053319;28;20029;-57
2022/10/23 09:17:40;;;;;;;5.25;2.72;;;14.30;99.90;;;;;;5053213;28;20500;-59
2022/10/23 09:20:28;;;;;;;11.80;3.15;;;14.40;99.90;;;;;;5052164;28;20024;-58
2022/10/23 09:23:11;;;;;;;7.40;3.38;;;14.60;99.90;;;;;;5052782;28;20025;-67
2022/10/23 09:25:42;;;;;;;5.05;2.75;;;14.60;99.90;;;;;;5051026;28;20091;-63
2022/10/23 09:28:24;;;;;;;;;;;14.80;99.90;;;;;;5051222;28;20086;-61
2022/10/23 09:30:51;;;;;;;5.05;2.95;;;14.90;99.90;;;;;;5053595;28;19908;-59
2022/10/23 09:33:20;;;;;;;6.25;3.08;;;14.90;99.90;;;;;;5052326;28;20017;-59
2022/10/23 09:36:04;;;;;;;5.40;3.15;;;15.00;99.90;;;;;;5053227;28;20025;-64
2022/10/23 09:38:31;;;;;;;6.80;3.20;;;15.00;99.90;;;;;;5052225;28;20048;-59
2022/10/23 09:41:18;;;;;;;5.90;2.92;;;15.10;99.90;;;;;;5051913;28;20607;-65
2022/10/23 09:43:44;;;;;;;6.82;3.35;;;15.10;99.90;;;;;;5049113;28;20551;-62
2022/10/23 09:46:10;;;;;;;6.47;3.55;;;15.00;99.90;;;;;;5052790;28;20068;-59
2022/10/23 09:48:37;;;;;;;7.03;3.88;;;15.10;99.90;;;;;;5051153;28;20025;-61
2022/10/23 09:51:18;;;;;;;7.93;3.20;;;15.10;99.90;;;;;;5050034;28;20389;-62
2022/10/23 09:53:54;;;;;;;4.82;2.53;;;15.10;99.90;;;;;;5037540;28;20017;-64
2022/10/23 09:56:22;;;;;;;8.52;3.05;;;15.20;99.90;;;;;;5051244;28;20032;-65
2022/10/23 09:59:23;;;;;;;6.20;3.88;;;15.20;99.90;;;;;;5049508;28;20032;-59
2022/10/23 10:02:00;;;;;;;7.63;3.53;;;15.20;99.90;;;;;;5039643;28;20434;-59
2022/10/23 10:04:38;;;;;;;7.10;3.40;;;15.20;99.90;;;;;;5049873;28;20040;-63
2022/10/23 10:07:16;;;;;;;6.82;3.17;;;15.20;99.90;;;;;;5054697;28;20029;-66
2022/10/23 10:09:42;;;;;;;8.45;3.13;;;15.20;99.90;;;;;;5040941;28;20033;-64
2022/10/23 10:12:52;;;;;;;7.15;2.67;;;15.20;99.90;;;;;;5051081;28;20378;-64
2022/10/23 10:15:17;;;;;;;7.82;4.07;;;15.30;99.90;;;;;;5049463;28;20025;-63
2022/10/23 10:18:01;;;;;;;8.77;3.90;;;15.30;99.90;;;;;;5052015;28;20025;-64
2022/10/23 10:20:56;;;;;;;5.78;3.47;;;15.30;99.90;;;;;;5050915;28;20599;-67
2022/10/23 10:23:32;;;;;;;6.30;3.20;;;15.30;99.90;;;;;;5050108;28;20032;-58
2022/10/23 10:26:41;;;;;;;7.78;3.30;;;15.30;99.90;;;;;;5051621;28;20037;-62
2022/10/23 10:29:16;;;;;;;7.20;4.13;;;15.40;99.90;;;;;;5031165;28;20505;-67
2022/10/23 10:32:04;;;;;;;6.47;3.28;;;15.40;99.90;;;;;;5051084;28;20017;-68
2022/10/23 10:34:49;;;;;;;7.07;3.40;;;15.50;99.90;;;;;;5052365;28;20028;-65
2022/10/23 10:37:33;;;;;;;10.25;3.63;;;15.60;99.90;;;;;;5051725;28;20079;-65
2022/10/23 10:40:15;;;;;;;8.15;3.28;;;15.70;99.90;;;;;;5032395;28;20038;-66
2022/10/23 10:43:09;;;;;;;6.70;3.40;;;15.80;99.90;;;;;;5040918;28;20029;-67
2022/10/23 10:45:40;;;;;;;6.22;4.03;;;16.00;99.90;;;;;;5051585;28;20090;-68
2022/10/23 10:48:26;;;;;;;6.05;3.05;;;16.10;99.90;;;;;;5050125;28;20021;-67
2022/10/23 10:51:06;;;;;;;6.55;3.55;;;16.10;99.90;;;;;;5049564;28;20041;-66
2022/10/23 10:53:43;;;;;;;5.63;2.90;;;16.20;99.90;;;;;;5051618;28;20048;-66
2022/10/23 10:56:16;;;;;;;6.93;3.40;;;16.20;99.90;;;;;;5052099;28;20056;-66
2022/10/23 10:59:01;;;;;;;8.57;3.72;;;16.30;99.90;;;;;;5051271;28;20022;-61
2022/10/23 11:01:48;;;;;;;6.88;3.38;;;16.30;99.90;;;;;;5052269;28;20052;-64
2022/10/23 11:04:32;;;;;;;7.75;3.47;;;16.30;99.90;;;;;;5051323;28;20041;-68
2022/10/23 11:07:05;;;;;;;5.70;3.20;;;16.40;99.90;;;;;;5052203;28;20056;-67
2022/10/23 11:09:31;;;;;;;8.63;3.75;;;16.40;99.90;;;;;;5051963;28;20532;-62
2022/10/23 11:11:57;;;;;;;5.07;3.15;;;16.40;99.90;;;;;;5051134;28;20120;-59
2022/10/23 11:14:33;;;;;;;7.32;3.10;;;16.40;99.90;;;;;;5052008;28;20021;-62
2022/10/23 11:17:07;;;;;;;9.05;3.30;;;16.40;99.90;;;;;;5053768;28;20168;-60
2022/10/23 11:19:42;;;;;;;6.00;2.50;;;16.50;99.90;;;;;;5055323;28;20033;-63
2022/10/23 11:22:17;;;;;;;6.75;3.55;;;16.60;99.90;;;;;;5055669;28;20338;-63
2022/10/23 11:25:07;;;;;;;5.63;3.10;;;16.70;99.90;;;;;;5055517;28;20098;-60
2022/10/23 11:27:47;;;;;;;7.07;2.83;;;16.70;99.90;;;;;;5055502;28;20370;-60
2022/10/23 11:30:25;;;;;;;6.90;3.33;;;16.80;99.90;;;;;;5055510;28;20074;-61
2022/10/23 11:33:04;;;;;;;5.93;3.03;;;16.80;99.90;;;;;;5054907;28;20359;-62
2022/10/23 11:35:54;;;;;;;5.90;3.13;;;16.80;99.90;;;;;;5055526;28;20116;-59
2022/10/23 11:38:30;;;;;;;8.32;3.08;;;16.90;99.90;;;;;;5055437;28;20033;-59
2022/10/23 11:41:00;;;;;;;6.25;3.08;;;16.90;99.90;;;;;;5055095;28;20033;-60
2022/10/23 11:43:27;;;;;;;5.10;2.60;;;17.00;99.90;;;;;;5055372;28;20063;-59
2022/10/23 11:45:53;;;;;;;5.97;2.95;;;17.10;99.90;;;;;;5055357;28;20041;-62
2022/10/23 11:48:20;;;;;;;5.50;2.80;;;17.20;99.90;;;;;;5054511;28;20377;-59
2022/10/23 11:50:46;;;;;;;5.32;2.63;;;17.20;99.90;;;;;;5055341;28;20397;-59
2022/10/23 11:53:30;;;;;;;3.75;2.50;;;17.30;99.90;;;;;;5055233;28;20462;-63
2022/10/23 11:56:19;;;;;;;4.72;2.60;;;17.40;99.90;;;;;;5054887;28;20462;-60
2022/10/23 11:58:57;;;;;;;6.78;3.28;;;17.50;99.90;;;;;;5051826;28;20041;-61
2022/10/23 12:01:40;;;;;;;7.43;3.55;;;17.50;99.90;;;;;;5054558;28;20104;-61
2022/10/23 12:04:20;;;;;;;5.18;2.83;;;17.60;99.90;;;;;;5054838;28;20033;-60
2022/10/23 12:06:52;;;;;;;5.45;2.75;;;17.60;99.90;;;;;;5055078;28;20082;-63
2022/10/23 12:09:27;;;;;;;4.78;2.50;;;17.60;99.90;;;;;;5054200;28;20059;-62
2022/10/23 12:12:08;;;;;;;6.38;2.80;;;17.60;99.90;;;;;;5054898;28;20043;-60
2022/10/23 12:14:44;;;;;;;3.95;2.20;;;17.70;99.90;;;;;;5054291;28;20116;-60
2022/10/23 12:17:27;;;;;;;3.22;2.20;;;17.70;99.90;;;;;;5054541;28;20322;-61
2022/10/23 12:20:14;;;;;;;5.57;2.67;;;17.80;99.90;;;;;;5052741;28;20029;-61
2022/10/23 12:23:04;;;;;;;3.97;2.28;;;17.80;99.90;;;;;;5052226;28;20025;-62
2022/10/23 12:25:42;;;;;;;6.22;2.20;;;17.90;99.90;;;;;;5053273;28;20075;-65
2022/10/23 12:28:22;;;;;;;4.05;2.13;;;18.00;99.90;;;;;;5052214;28;20132;-62
2022/10/23 12:31:34;;;;;;;6.57;2.38;;;18.00;99.90;;;;;;5052781;28;20033;-59
2022/10/23 12:34:24;;;;;;;5.13;2.80;;;18.20;99.90;;;;;;5053637;28;20428;-61
2022/10/23 12:37:07;;;;;;;5.28;2.08;;;18.20;99.90;;;;;;5053983;28;20036;-60
2022/10/23 12:39:36;;;;;;;4.38;2.50;;;18.20;99.90;;;;;;5054245;28;20028;-66
2022/10/23 12:42:03;;;;;;;5.45;2.30;;;18.20;99.90;;;;;;5054238;28;20021;-62
2022/10/23 12:44:29;;;;;;;6.57;2.72;;;18.20;99.90;;;;;;5053584;28;20079;-62
2022/10/23 12:47:02;;;;;;;7.30;2.45;;;18.20;99.90;;;;;;5054258;28;20050;-62
2022/10/23 12:49:32;;;;;;;5.10;2.25;;;18.30;99.90;;;;;;5054033;28;20335;-60
2022/10/23 12:52:04;;;;;;;6.93;2.40;;;18.30;99.90;;;;;;5053984;28;20029;-63
2022/10/23 12:54:31;;;;;;;4.90;2.63;;;18.40;99.90;;;;;;5054105;28;20422;-59
2022/10/23 12:56:57;;;;;;;4.03;2.17;;;18.40;99.90;;;;;;5053574;28;20037;-61
2022/10/23 12:59:27;;;;;;;4.65;2.20;;;18.40;99.90;;;;;;5053843;28;20052;-60
2022/10/23 13:01:53;;;;;;;5.32;2.10;;;18.40;99.90;;;;;;5053824;28;20029;-60
2022/10/23 13:04:30;;;;;;;4.95;2.17;;;18.40;99.90;;;;;;5053226;28;20040;-62
2022/10/23 13:06:58;;;;;;;7.22;2.33;;;18.50;99.90;;;;;;5053851;28;20090;-62